createdAt,value
2022-12-13T00:00:19.366Z,99745.50
2022-12-13T00:05:20.946Z,99769.06
2022-12-13T00:10:22.536Z,99780.16
2022-12-13T00:15:24.086Z,99792.66
2022-12-13T00:20:25.661Z,99794.59
2022-12-13T00:25:27.546Z,99815.94
2022-12-13T00:30:31.759Z,99812.28
2022-12-13T00:35:34.542Z,99823.09
2022-12-13T00:40:36.199Z,99828.81
2022-12-13T00:45:38.344Z,99839.19
2022-12-13T00:50:40.565Z,99838.19
2022-12-13T00:55:42.249Z,99839.56
2022-12-13T01:00:43.822Z,99857.09
2022-12-13T01:06:14.138Z,99882.34
2022-12-13T01:11:08.148Z,99869.72
2022-12-13T01:16:11.372Z,99890.56
2022-12-13T01:21:16.054Z,99889.16
2022-12-13T01:26:20.291Z,99902.53
2022-12-13T01:31:22.184Z,99903.94
2022-12-13T01:36:27.832Z,99915.81
2022-12-13T01:41:32.284Z,99908.09
2022-12-13T01:46:35.944Z,99907.97
2022-12-13T01:51:52.376Z,99906.97
2022-12-13T01:57:00.711Z,99907.25
2022-12-13T02:02:03.445Z,99898.53
2022-12-13T02:07:05.792Z,99886.78
2022-12-13T02:12:07.601Z,99890.41
2022-12-13T02:17:24.503Z,99895.34
2022-12-13T02:23:03.922Z,99893.41
2022-12-13T02:28:48.904Z,99896.66
2022-12-13T02:33:58.444Z,99889.22
2022-12-13T02:39:09.436Z,99900.22
2022-12-13T02:44:22.945Z,99892.81
2022-12-13T02:49:31.070Z,99887.03
2022-12-13T02:54:33.281Z,99894.56
2022-12-13T02:59:39.332Z,99873.81
2022-12-13T03:05:28.390Z,99862.44
2022-12-13T03:10:33.246Z,99861.16
2022-12-13T03:15:47.645Z,99834.50
2022-12-13T03:20:53.003Z,99794.50
2022-12-13T03:25:59.467Z,99772.63
2022-12-13T03:31:01.119Z,99763.41
2022-12-13T03:36:03.497Z,99713.19
2022-12-13T03:41:14.054Z,99691.06
2022-12-13T03:46:16.102Z,99679.56
2022-12-13T03:51:17.681Z,99677.72
2022-12-13T03:56:19.254Z,99679.28
2022-12-13T04:01:22.119Z,99671.44
2022-12-13T04:06:26.380Z,99697.25
2022-12-13T04:11:49.885Z,99720.25
2022-12-13T04:16:52.349Z,99717.69
2022-12-13T04:21:54.976Z,99715.13
2022-12-13T04:26:56.525Z,99692.97
2022-12-13T04:32:04.742Z,99665.50
2022-12-13T04:37:06.497Z,99645.56
2022-12-13T04:42:08.048Z,99635.88
2022-12-13T04:47:09.594Z,99612.06
2022-12-13T04:52:11.298Z,99590.75
2022-12-13T04:57:13.269Z,99572.66
2022-12-13T05:02:14.935Z,99554.16
2022-12-13T05:07:26.663Z,99535.91
2022-12-13T05:12:28.236Z,99515.72
2022-12-13T05:17:29.884Z,99507.03
2022-12-13T05:22:31.447Z,99478.44
2022-12-13T05:27:33.120Z,99463.47
2022-12-13T05:32:43.465Z,99438.66
2022-12-13T05:37:46.701Z,99428.88
2022-12-13T05:43:01.331Z,99415.94
2022-12-13T05:48:03.808Z,99408.84
2022-12-13T05:53:06.932Z,99399.97
2022-12-13T05:58:13.188Z,99387.38
2022-12-13T06:03:15.290Z,99381.53
2022-12-13T06:08:24.015Z,99387.09
2022-12-13T06:13:31.912Z,99385.69
2022-12-13T06:18:35.843Z,99377.72
2022-12-13T06:23:37.541Z,99369.75
2022-12-13T06:28:39.078Z,99370.44
2022-12-13T06:33:40.670Z,99375.63
2022-12-13T06:38:43.291Z,99382.91
2022-12-13T06:43:48.368Z,99369.75
2022-12-13T06:48:52.109Z,99387.66
2022-12-13T06:53:53.734Z,99396.06
2022-12-13T06:59:01.656Z,99400.16
2022-12-13T07:04:03.706Z,99395.09
2022-12-13T07:09:05.512Z,99402.38
2022-12-13T07:14:07.742Z,99417.91
2022-12-13T07:19:22.822Z,99419.59
2022-12-13T07:24:29.396Z,99431.50
2022-12-13T07:29:32.176Z,99426.03
2022-12-13T07:34:43.612Z,99431.06
2022-12-13T07:39:46.612Z,99443.00
2022-12-13T07:44:51.355Z,99443.44
2022-12-13T07:49:54.888Z,99448.47
2022-12-13T07:55:05.873Z,99454.22
2022-12-13T08:00:08.333Z,99470.59
2022-12-13T08:05:26.883Z,99471.03
2022-12-13T08:10:31.719Z,99480.31
2022-12-13T08:15:33.777Z,99499.50
2022-12-13T08:20:35.484Z,99511.00
2022-12-13T08:25:38.314Z,99524.59
2022-12-13T08:30:39.950Z,99561.19
2022-12-13T08:35:43.575Z,99572.44
2022-12-13T08:40:46.193Z,99575.81
2022-12-13T08:45:50.615Z,99593.91
2022-12-13T08:50:52.290Z,99620.28
2022-12-13T08:55:54.974Z,99654.69
2022-12-13T09:00:56.690Z,99682.50
2022-12-13T09:05:58.294Z,99719.28
2022-12-13T09:11:11.479Z,99747.91
2022-12-13T09:16:24.814Z,99786.66
2022-12-13T09:21:31.874Z,99820.94
2022-12-13T09:26:38.230Z,99857.22
2022-12-13T09:31:41.241Z,99913.00
2022-12-13T09:36:43.060Z,99952.81
2022-12-13T09:41:49.484Z,99970.97
2022-12-13T09:46:53.661Z,100007.25
2022-12-13T09:52:11.041Z,100030.75
2022-12-13T09:57:34.122Z,100037.94
2022-12-13T10:02:43.708Z,100062.84
2022-12-13T10:07:46.207Z,100065.38
2022-12-13T10:12:58.273Z,100073.69
2022-12-13T10:18:29.461Z,100091.28
2022-12-13T10:23:42.573Z,99965.22
2022-12-13T10:29:11.576Z,99858.53
2022-12-13T10:34:22.093Z,99794.53
2022-12-13T10:39:43.028Z,99708.13
2022-12-13T10:44:45.837Z,99677.91
2022-12-13T10:49:59.076Z,99638.47
2022-12-13T10:55:23.343Z,99610.75
2022-12-13T11:00:34.928Z,99575.97
2022-12-13T11:05:38.513Z,99569.97
2022-12-13T11:10:40.679Z,99564.47
2022-12-13T11:15:42.736Z,99535.69
2022-12-13T11:20:56.705Z,99526.47
2022-12-13T11:26:11.445Z,99517.94
2022-12-13T11:36:53.859Z,99477.28
2022-12-13T11:42:08.802Z,99455.50
2022-12-13T11:47:21.755Z,99420.34
2022-12-13T11:52:27.027Z,99400.94
2022-12-13T11:58:00.077Z,99400.41
2022-12-13T12:03:21.789Z,99378.66
2022-12-13T12:08:38.860Z,99385.53
2022-12-13T12:13:50.852Z,99356.69
2022-12-13T12:18:53.607Z,99328.91
2022-12-13T12:24:07.380Z,99318.19
2022-12-13T12:29:20.484Z,99338.28
2022-12-13T12:34:45.874Z,99332.56
2022-12-13T12:40:35.706Z,99311.63
2022-12-13T12:46:06.251Z,99290.84
2022-12-13T12:51:29.382Z,99296.19
2022-12-13T12:56:38.173Z,99262.84
2022-12-13T13:02:10.811Z,99340.59
2022-12-13T13:07:23.199Z,99329.03
2022-12-13T13:12:30.139Z,99311.59
2022-12-13T13:17:32.124Z,99310.53
2022-12-13T13:22:43.527Z,99288.56
2022-12-13T13:27:49.155Z,99270.44
2022-12-13T13:32:56.616Z,99301.94
2022-12-13T13:38:01.021Z,99275.28
2022-12-13T13:43:05.396Z,99265.09
2022-12-13T13:48:15.312Z,99244.97
2022-12-13T13:53:34.494Z,99270.13
2022-12-13T13:58:51.329Z,99264.75
2022-12-13T14:04:37.933Z,99261.56
2022-12-13T14:10:12.282Z,99247.16
2022-12-13T14:15:49.916Z,99214.16
2022-12-13T14:21:05.840Z,99222.19
2022-12-13T14:26:32.382Z,99205.59
2022-12-13T14:31:41.039Z,99180.81
2022-12-13T14:36:48.011Z,99172.56
2022-12-13T14:41:56.569Z,99193.34
2022-12-13T14:47:11.966Z,99167.41
2022-12-13T14:52:25.909Z,99147.75
2022-12-13T14:57:31.933Z,99177.47
2022-12-13T15:02:33.842Z,99202.44
2022-12-13T15:07:41.384Z,99228.97
2022-12-13T15:12:44.788Z,99289.00
2022-12-13T15:17:46.363Z,99308.47
2022-12-13T15:23:01.873Z,99315.69
2022-12-13T15:28:13.577Z,99325.69
2022-12-13T15:33:29.045Z,99343.63
2022-12-13T15:38:45.291Z,99338.28
2022-12-13T15:43:51.370Z,99344.44
2022-12-13T15:48:55.272Z,99326.22
2022-12-13T15:54:09.059Z,99331.38
2022-12-13T15:59:32.090Z,99341.91
2022-12-13T16:04:33.699Z,99336.88
2022-12-13T16:09:38.168Z,99340.56
2022-12-13T16:14:49.225Z,99331.84
2022-12-13T16:19:53.255Z,99312.59
2022-12-13T16:24:56.514Z,99309.59
2022-12-13T16:29:58.489Z,99300.72
2022-12-13T16:35:00.066Z,99305.56
2022-12-13T16:40:30.223Z,99291.34
2022-12-13T16:45:42.585Z,99288.34
2022-12-13T16:50:50.081Z,99284.66
2022-12-13T16:55:59.691Z,99284.50
2022-12-13T17:01:02.649Z,99287.00
2022-12-13T17:06:04.663Z,99278.16
2022-12-13T17:11:07.027Z,99279.66
2022-12-13T17:16:08.695Z,99273.28
2022-12-13T17:21:10.620Z,99261.75
2022-12-13T17:26:12.266Z,99253.19
2022-12-13T17:31:14.027Z,99263.91
2022-12-13T17:36:16.552Z,99255.56
2022-12-13T17:41:18.341Z,99255.56
2022-12-13T17:46:20.074Z,99221.41
2022-12-13T17:51:21.846Z,99239.50
2022-12-13T17:56:23.467Z,99238.81
2022-12-13T18:01:26.618Z,99242.63
2022-12-13T18:06:28.296Z,99226.25
2022-12-13T18:11:33.995Z,99222.75
2022-12-13T18:16:38.521Z,99216.53
2022-12-13T18:21:45.974Z,99216.72
2022-12-13T18:26:47.506Z,99202.31
2022-12-13T18:31:49.064Z,99184.09
2022-12-13T18:36:50.667Z,99191.28
2022-12-13T18:41:53.428Z,99169.03
2022-12-13T18:46:55.047Z,99152.97
2022-12-13T18:51:56.889Z,99113.28
2022-12-13T18:56:58.462Z,99103.44
2022-12-13T19:02:00.836Z,99062.41
2022-12-13T19:07:02.521Z,99051.34
2022-12-13T19:12:04.444Z,99060.03
2022-12-13T19:17:06.024Z,99045.66
2022-12-13T19:22:07.810Z,99046.97
2022-12-13T19:27:09.339Z,99037.91
2022-12-13T19:32:10.871Z,99049.94
2022-12-13T19:37:12.644Z,99058.19
2022-12-13T19:42:15.402Z,99055.16
2022-12-13T19:47:16.980Z,99060.66
2022-12-13T19:52:18.509Z,99049.63
2022-12-13T19:57:20.035Z,99001.53
2022-12-13T20:02:21.566Z,98995.69
2022-12-13T20:07:24.722Z,98995.22
2022-12-13T20:12:26.282Z,98970.56
2022-12-13T20:17:27.926Z,98967.72
2022-12-13T20:22:29.513Z,98956.16
2022-12-13T20:27:31.075Z,98960.19
2022-12-13T20:32:34.053Z,98953.47
2022-12-13T20:37:35.616Z,98938.75
2022-12-13T20:42:37.169Z,98954.16
2022-12-13T20:47:38.699Z,98953.69
2022-12-13T20:52:40.215Z,98955.50
2022-12-13T20:57:41.755Z,98972.44
2022-12-13T21:02:44.557Z,98971.41
2022-12-13T21:08:04.693Z,98952.47
2022-12-13T21:13:06.225Z,98951.28
2022-12-13T21:18:07.750Z,98929.69
2022-12-13T21:23:09.261Z,98910.09
2022-12-13T21:28:12.892Z,98898.19
2022-12-13T21:33:14.423Z,98921.66
2022-12-13T21:38:15.981Z,98900.22
2022-12-13T21:43:17.539Z,98895.34
2022-12-13T21:48:19.570Z,98871.31
2022-12-13T21:53:21.091Z,98885.69
2022-12-13T21:58:41.357Z,98860.69
2022-12-13T22:03:42.882Z,98783.03
2022-12-13T22:08:44.475Z,98771.59
2022-12-13T22:13:48.419Z,98745.63
2022-12-13T22:18:54.113Z,98760.69
2022-12-13T22:23:55.870Z,98766.53
2022-12-13T22:28:58.509Z,98788.06
2022-12-13T22:34:00.101Z,98772.44
2022-12-13T22:39:01.676Z,98761.91
2022-12-13T22:44:03.349Z,98762.47
2022-12-13T22:49:05.087Z,98789.94
2022-12-13T22:54:06.961Z,98799.06
2022-12-13T22:59:08.498Z,98779.28
2022-12-13T23:04:11.621Z,98801.28
2022-12-13T23:09:15.497Z,98815.81
2022-12-13T23:14:20.183Z,98820.13
2022-12-13T23:24:43.456Z,98818.66
2022-12-13T23:29:45.007Z,98811.47
2022-12-13T23:34:46.553Z,98824.16
2022-12-13T23:39:48.197Z,98843.72
2022-12-13T23:44:49.711Z,98860.47
2022-12-13T23:49:51.236Z,98867.25
2022-12-13T23:54:52.774Z,98869.56
2022-12-13T23:59:54.307Z,98864.84
